Time;durP1;ratioP1;P1;durP2;ratioP2;P2;SDS_P1;SDS_P2;PMS_P1;PMS_P2;Temp;Humidity;BMP_temperature;BMP_pressure;BME280_temperature;BME280_humidity;BME280_pressure;Samples;Min_cycle;Max_cycle;Signal;HPM_P1;HPM_P2
2023/12/11 00:01:48;;;;;;;27.73;6.53;;;10.40;99.90;;;;;;4996550;28;20038;-93
2023/12/11 00:04:14;;;;;;;21.08;5.18;;;10.40;99.90;;;;;;4968856;28;20034;-87
2023/12/11 00:06:39;;;;;;;26.60;5.63;;;10.40;99.90;;;;;;5018994;28;20021;-92
2023/12/11 00:09:05;;;;;;;27.10;5.63;;;10.40;99.90;;;;;;5003134;28;20022;-93
2023/12/11 00:11:31;;;;;;;21.67;5.70;;;10.40;99.90;;;;;;5003045;28;20022;-89
2023/12/11 00:13:56;;;;;;;22.98;5.82;;;10.40;99.90;;;;;;4996274;28;20518;-92
2023/12/11 00:16:22;;;;;;;18.95;4.65;;;10.40;99.90;;;;;;4980114;28;20033;-93
2023/12/11 00:18:50;;;;;;;28.90;5.82;;;10.40;99.90;;;;;;4997107;28;20030;-94
2023/12/11 00:21:16;;;;;;;27.98;5.13;;;10.40;99.90;;;;;;4995794;28;20498;-95
2023/12/11 00:23:42;;;;;;;26.08;5.45;;;10.30;99.90;;;;;;4995580;28;20113;-93
2023/12/11 00:26:08;;;;;;;24.65;5.05;;;10.40;99.90;;;;;;4979563;28;20027;-93
2023/12/11 00:28:34;;;;;;;24.27;5.65;;;10.30;99.90;;;;;;4994826;28;20033;-92
2023/12/11 00:31:01;;;;;;;22.50;4.85;;;10.30;99.90;;;;;;4996420;28;20034;-93
2023/12/11 00:33:27;;;;;;;19.92;5.50;;;10.30;99.90;;;;;;4995554;28;20030;-93
2023/12/11 00:35:52;;;;;;;26.38;5.75;;;10.30;99.90;;;;;;4995448;28;20466;-94
2023/12/11 00:38:18;;;;;;;20.45;4.85;;;10.30;99.90;;;;;;4979499;28;20121;-93
2023/12/11 00:40:45;;;;;;;26.75;5.60;;;10.30;99.90;;;;;;4963811;28;20026;-92
2023/12/11 00:43:11;;;;;;;27.75;5.40;;;10.30;99.90;;;;;;4995992;28;20038;-93
2023/12/11 00:45:36;;;;;;;28.30;6.45;;;10.20;99.90;;;;;;4996745;28;20088;-91
2023/12/11 00:48:02;;;;;;;23.00;5.60;;;10.20;99.90;;;;;;4979560;28;20477;-92
2023/12/11 00:50:28;;;;;;;26.38;5.88;;;10.20;99.90;;;;;;4978972;28;20053;-94
2023/12/11 00:52:53;;;;;;;23.38;4.95;;;10.20;99.90;;;;;;4995360;28;20030;-92
2023/12/11 00:55:19;;;;;;;22.23;5.80;;;10.20;99.90;;;;;;4978680;28;20023;-94
2023/12/11 00:57:45;;;;;;;23.88;5.40;;;10.20;99.90;;;;;;4962483;28;20061;-92
2023/12/11 01:00:11;;;;;;;28.60;5.75;;;10.20;99.90;;;;;;4994917;28;20505;-94
2023/12/11 01:02:37;;;;;;;24.00;5.45;;;10.20;99.90;;;;;;4994460;28;20031;-92
2023/12/11 01:05:04;;;;;;;29.33;6.28;;;10.20;99.90;;;;;;4994754;28;20026;-95
2023/12/11 01:07:29;;;;;;;23.75;5.30;;;10.20;99.90;;;;;;4994529;28;20031;-90
2023/12/11 01:09:55;;;;;;;20.65;5.07;;;10.20;99.90;;;;;;4962415;28;20033;-92
2023/12/11 01:12:21;;;;;;;29.48;6.70;;;10.20;99.90;;;;;;4994893;28;20041;-92
2023/12/11 01:14:46;;;;;;;28.80;6.75;;;10.20;99.90;;;;;;4993912;28;20416;-92
2023/12/11 01:17:12;;;;;;;21.95;5.45;;;10.10;99.90;;;;;;4994744;28;20104;-92
2023/12/11 01:19:38;;;;;;;29.40;7.35;;;10.20;99.90;;;;;;4995637;28;20045;-93
2023/12/11 01:22:03;;;;;;;26.02;6.00;;;10.20;99.90;;;;;;4994644;28;20125;-91
2023/12/11 01:24:29;;;;;;;27.58;6.40;;;10.20;99.90;;;;;;4994731;28;20030;-93
2023/12/11 01:26:55;;;;;;;23.08;6.03;;;10.20;99.90;;;;;;4978431;28;20058;-92
2023/12/11 01:29:20;;;;;;;22.50;5.53;;;10.20;99.90;;;;;;4978341;28;20030;-94
2023/12/11 01:31:46;;;;;;;24.45;5.40;;;10.20;99.90;;;;;;4983759;28;20489;-91
2023/12/11 01:34:12;;;;;;;29.77;6.00;;;10.20;99.90;;;;;;5002618;28;20161;-92
2023/12/11 01:36:37;;;;;;;20.98;5.82;;;10.20;99.90;;;;;;5015403;28;20046;-90
2023/12/11 01:39:03;;;;;;;31.88;6.35;;;10.20;99.90;;;;;;5024241;28;20033;-92
2023/12/11 01:41:29;;;;;;;25.02;5.88;;;10.20;99.90;;;;;;4992045;28;20038;-87
2023/12/11 01:43:55;;;;;;;16.90;4.93;;;10.20;99.90;;;;;;5024586;28;20019;-93
2023/12/11 01:46:23;;;;;;;25.30;5.53;;;10.20;99.90;;;;;;4990238;28;20463;-91
2023/12/11 01:48:50;;;;;;;24.23;5.70;;;10.10;99.90;;;;;;5001345;28;20455;-91
2023/12/11 01:51:17;;;;;;;30.00;5.90;;;10.20;99.90;;;;;;5001436;28;20034;-92
2023/12/11 01:53:48;;;;;;;30.15;6.13;;;10.20;99.90;;;;;;4984628;28;20030;-93
2023/12/11 01:56:14;;;;;;;;;;;10.20;99.90;;;;;;5002498;28;20034;-92
2023/12/11 01:58:39;;;;;;;22.23;5.45;;;10.20;99.90;;;;;;4984829;28;19910;-92
2023/12/11 02:01:08;;;;;;;25.10;5.53;;;10.10;99.90;;;;;;5000632;28;20057;-91
2023/12/11 02:03:34;;;;;;;23.38;5.18;;;10.20;99.90;;;;;;5000463;28;20041;-94
2023/12/11 02:06:00;;;;;;;26.75;6.93;;;10.20;99.90;;;;;;4968580;28;20035;-91
2023/12/11 02:08:26;;;;;;;22.52;5.85;;;10.20;99.90;;;;;;4984441;28;20088;-91
2023/12/11 02:10:51;;;;;;;23.95;5.90;;;10.20;99.90;;;;;;4984550;28;20041;-91
2023/12/11 02:13:20;;;;;;;27.17;5.93;;;10.20;99.90;;;;;;4984088;28;20049;-93
2023/12/11 02:15:47;;;;;;;24.25;5.70;;;10.30;99.90;;;;;;5000102;28;20053;-93
2023/12/11 02:18:14;;;;;;;24.30;5.53;;;10.30;99.90;;;;;;5000330;28;20018;-93
2023/12/11 02:20:41;;;;;;;24.42;5.57;;;10.30;99.90;;;;;;5001517;28;20089;-92
2023/12/11 02:23:38;;;;;;;23.45;5.35;;;10.30;99.90;;;;;;4984254;28;20045;-92
2023/12/11 02:26:09;;;;;;;22.05;5.47;;;10.30;99.90;;;;;;5000553;28;20101;-94
2023/12/11 02:28:35;;;;;;;;;;;10.30;99.90;;;;;;5000647;28;20038;-92
2023/12/11 02:31:00;;;;;;;24.48;5.38;;;10.30;99.90;;;;;;5000390;28;19910;-92
2023/12/11 02:33:26;;;;;;;22.55;5.40;;;10.30;99.90;;;;;;4983242;28;20125;-89
2023/12/11 02:35:52;;;;;;;26.70;6.03;;;10.30;99.90;;;;;;4999901;28;20034;-93
2023/12/11 02:38:17;;;;;;;27.75;5.72;;;10.30;99.90;;;;;;4999884;28;20129;-91
2023/12/11 02:40:43;;;;;;;29.05;5.80;;;10.30;99.90;;;;;;4967770;28;20084;-93
2023/12/11 02:43:09;;;;;;;21.90;5.20;;;10.30;99.90;;;;;;4998298;28;20035;-92
2023/12/11 02:45:34;;;;;;;24.90;5.75;;;10.30;99.90;;;;;;4997857;28;20415;-93
2023/12/11 02:48:02;;;;;;;24.50;5.53;;;10.30;99.90;;;;;;4998067;28;20038;-91
2023/12/11 02:50:34;;;;;;;19.85;5.10;;;10.30;99.90;;;;;;4981034;28;20126;-86
2023/12/11 02:53:03;;;;;;;14.55;4.32;;;10.30;99.90;;;;;;4980549;28;20030;-90
2023/12/11 02:55:29;;;;;;;19.70;4.88;;;10.30;99.90;;;;;;4996959;28;20069;-87
2023/12/11 02:58:00;;;;;;;21.67;5.10;;;10.30;99.90;;;;;;4997216;28;20105;-92
2023/12/11 03:00:28;;;;;;;24.52;5.45;;;10.40;99.90;;;;;;4998350;28;20027;-91
2023/12/11 03:02:54;;;;;;;26.75;5.57;;;10.40;99.90;;;;;;4996819;28;20065;-91
2023/12/11 03:05:20;;;;;;;20.90;5.32;;;10.40;99.90;;;;;;4997367;28;20462;-90
2023/12/11 03:07:46;;;;;;;23.20;5.10;;;10.40;99.90;;;;;;5003002;28;20033;-90
2023/12/11 03:10:12;;;;;;;21.23;4.95;;;10.40;99.90;;;;;;5004054;28;20011;-90
2023/12/11 03:12:37;;;;;;;27.42;5.68;;;10.40;99.90;;;;;;5020205;28;20019;-90
2023/12/11 03:15:05;;;;;;;24.08;5.40;;;10.40;99.90;;;;;;5020207;28;20042;-92
2023/12/11 03:17:31;;;;;;;21.90;5.00;;;10.50;99.90;;;;;;5009180;28;20056;-92
2023/12/11 03:19:59;;;;;;;22.50;5.78;;;10.50;99.90;;;;;;4981122;28;20038;-90
2023/12/11 03:22:25;;;;;;;22.17;5.10;;;10.40;99.90;;;;;;4996859;28;20031;-90
2023/12/11 03:24:51;;;;;;;20.00;4.70;;;10.40;99.90;;;;;;4964057;28;20022;-90
2023/12/11 03:27:17;;;;;;;29.45;5.10;;;10.40;99.90;;;;;;4997834;28;20152;-90
2023/12/11 03:29:43;;;;;;;23.95;5.00;;;10.40;99.90;;;;;;4996541;28;20050;-91
2023/12/11 03:32:09;;;;;;;15.55;4.18;;;10.40;99.90;;;;;;4996732;28;20030;-89
2023/12/11 03:34:34;;;;;;;17.15;3.65;;;10.40;99.90;;;;;;4980072;28;20034;-90
2023/12/11 03:37:00;;;;;;;11.13;3.03;;;10.40;99.90;;;;;;4979880;28;20018;-91
2023/12/11 03:39:26;;;;;;;14.35;3.70;;;10.40;99.90;;;;;;4979754;28;20126;-90
2023/12/11 03:41:52;;;;;;;16.10;3.42;;;10.40;99.90;;;;;;4979585;28;20045;-90
2023/12/11 03:44:17;;;;;;;19.58;4.75;;;10.40;99.90;;;;;;4995929;28;20085;-90
2023/12/11 03:46:43;;;;;;;23.55;5.55;;;10.40;99.90;;;;;;4979476;28;20030;-90
2023/12/11 03:49:09;;;;;;;23.63;4.95;;;10.30;99.90;;;;;;4995863;28;20077;-91
2023/12/11 03:51:35;;;;;;;21.55;4.97;;;10.30;99.90;;;;;;4995630;28;20027;-90
2023/12/11 03:54:00;;;;;;;19.33;5.05;;;10.30;99.90;;;;;;4979313;28;20026;-90
2023/12/11 03:56:27;;;;;;;21.13;5.22;;;10.30;99.90;;;;;;4996436;28;20027;-92
2023/12/11 03:58:53;;;;;;;20.70;4.60;;;10.30;99.90;;;;;;4979318;28;20125;-90
2023/12/11 04:01:19;;;;;;;21.10;5.20;;;10.30;99.90;;;;;;4979163;28;20054;-89
2023/12/11 04:03:44;;;;;;;12.98;4.03;;;10.30;99.90;;;;;;4995289;28;20030;-91
2023/12/11 04:06:10;;;;;;;13.38;3.75;;;10.30;99.90;;;;;;4995546;28;20493;-89
2023/12/11 04:08:42;;;;;;;17.85;3.95;;;10.30;99.90;;;;;;4995488;28;20031;-89
2023/12/11 04:11:09;;;;;;;12.52;3.50;;;10.30;99.90;;;;;;4995094;28;20026;-90
2023/12/11 04:13:35;;;;;;;9.75;2.45;;;10.30;99.90;;;;;;4979274;28;20022;-90
2023/12/11 04:16:03;;;;;;;11.80;3.22;;;10.30;99.90;;;;;;4995295;28;20084;-92
2023/12/11 04:18:29;;;;;;;15.75;3.03;;;10.20;99.90;;;;;;4979411;28;20058;-90
2023/12/11 04:20:55;;;;;;;10.43;2.67;;;10.20;99.90;;;;;;4994881;28;20530;-91
2023/12/11 04:23:20;;;;;;;17.27;3.75;;;10.20;99.90;;;;;;4963118;28;20073;-90
2023/12/11 04:25:46;;;;;;;12.82;3.40;;;10.20;99.90;;;;;;4963077;28;20061;-90
2023/12/11 04:28:12;;;;;;;21.92;3.85;;;10.20;99.90;;;;;;4995610;28;20041;-89
2023/12/11 04:30:37;;;;;;;19.80;4.90;;;10.20;99.90;;;;;;4995545;28;20041;-90
2023/12/11 04:33:03;;;;;;;22.50;4.60;;;10.20;99.90;;;;;;4963232;28;20089;-90
2023/12/11 04:35:29;;;;;;;19.38;4.95;;;10.20;99.90;;;;;;4979583;28;20467;-89
2023/12/11 04:37:54;;;;;;;20.33;4.15;;;10.20;99.90;;;;;;4980881;28;20479;-90
2023/12/11 04:40:20;;;;;;;21.00;4.80;;;10.30;99.90;;;;;;5001704;28;20082;-88
2023/12/11 04:42:45;;;;;;;19.33;5.00;;;10.20;99.90;;;;;;4985968;28;20026;-84
2023/12/11 04:45:11;;;;;;;18.65;4.85;;;10.20;99.90;;;;;;4999408;28;20022;-91
2023/12/11 04:47:37;;;;;;;21.58;5.38;;;10.20;99.90;;;;;;5002427;28;20113;-89
2023/12/11 04:50:03;;;;;;;23.63;5.25;;;10.30;99.90;;;;;;4979355;28;20023;-90
2023/12/11 04:52:28;;;;;;;22.27;5.13;;;10.20;99.90;;;;;;4979123;28;20375;-88
2023/12/11 04:54:54;;;;;;;23.35;4.78;;;10.30;99.90;;;;;;4962583;28;20030;-90
2023/12/11 04:57:20;;;;;;;21.85;5.15;;;10.30;99.90;;;;;;4978425;28;20030;-91
2023/12/11 04:59:45;;;;;;;23.23;4.53;;;10.30;99.90;;;;;;4978004;28;20041;-90
2023/12/11 05:02:11;;;;;;;21.48;5.50;;;10.20;99.90;;;;;;4994516;28;20041;-90
2023/12/11 05:04:37;;;;;;;24.55;5.18;;;10.30;99.90;;;;;;4978589;28;20061;-91
2023/12/11 05:07:03;;;;;;;26.98;5.55;;;10.30;99.90;;;;;;4977237;28;20031;-91
2023/12/11 05:09:28;;;;;;;28.00;5.82;;;10.30;99.90;;;;;;4994656;28;20030;-90
2023/12/11 05:11:54;;;;;;;23.05;5.07;;;10.30;99.90;;;;;;4994156;28;20031;-89
2023/12/11 05:14:19;;;;;;;24.98;5.53;;;10.30;99.90;;;;;;4994386;28;20081;-89
2023/12/11 05:16:47;;;;;;;18.35;4.28;;;10.30;99.90;;;;;;4994330;28;20029;-87
2023/12/11 05:19:13;;;;;;;29.48;6.57;;;10.30;99.90;;;;;;4994228;28;20412;-90
2023/12/11 05:21:43;;;;;;;26.98;5.70;;;10.30;99.90;;;;;;4994201;28;20041;-90
2023/12/11 05:24:09;;;;;;;24.15;4.45;;;10.30;99.90;;;;;;4994139;28;20034;-91
2023/12/11 05:26:34;;;;;;;22.98;5.05;;;10.30;99.90;;;;;;4995748;28;20038;-89
2023/12/11 05:29:00;;;;;;;25.40;4.93;;;10.30;99.90;;;;;;4995616;28;20026;-90
2023/12/11 05:31:26;;;;;;;21.88;4.07;;;10.40;99.90;;;;;;4962286;28;20022;-92
2023/12/11 05:33:52;;;;;;;17.92;4.63;;;10.30;99.90;;;;;;4977913;28;20561;-92
2023/12/11 05:36:17;;;;;;;22.90;5.43;;;10.40;99.90;;;;;;4994106;28;20035;-89
2023/12/11 05:38:43;;;;;;;22.60;5.28;;;10.40;99.90;;;;;;4961620;28;20027;-87
2023/12/11 05:41:08;;;;;;;20.02;5.35;;;10.40;99.90;;;;;;4976988;28;20035;-87
2023/12/11 05:43:34;;;;;;;24.77;4.90;;;10.40;99.90;;;;;;4993427;28;20096;-89
2023/12/11 05:46:00;;;;;;;23.13;5.15;;;10.40;99.90;;;;;;4977852;28;20035;-92
2023/12/11 05:48:25;;;;;;;19.13;5.13;;;10.40;99.90;;;;;;4961848;28;20121;-93
2023/12/11 05:50:51;;;;;;;21.15;4.80;;;10.40;99.90;;;;;;4994057;28;20054;-92
2023/12/11 05:53:17;;;;;;;20.52;4.53;;;10.40;99.90;;;;;;4977533;28;20370;-93
2023/12/11 05:55:42;;;;;;;19.10;5.05;;;10.40;99.90;;;;;;4993992;28;20034;-91
2023/12/11 05:58:08;;;;;;;17.35;5.35;;;10.40;99.90;;;;;;4993985;28;20038;-91
2023/12/11 06:00:34;;;;;;;24.00;5.53;;;10.40;99.90;;;;;;4995436;28;20406;-90
2023/12/11 06:03:00;;;;;;;18.90;4.25;;;10.40;99.90;;;;;;4994012;28;20046;-91
2023/12/11 06:05:26;;;;;;;19.42;5.03;;;10.40;99.90;;;;;;4995091;28;20029;-91
2023/12/11 06:07:54;;;;;;;18.88;4.88;;;10.40;99.90;;;;;;4978174;28;20030;-92
2023/12/11 06:10:19;;;;;;;22.30;4.55;;;10.40;99.90;;;;;;5001016;28;20015;-91
2023/12/11 06:12:45;;;;;;;19.77;5.13;;;10.40;99.90;;;;;;5017570;28;20053;-89
2023/12/11 06:15:11;;;;;;;25.50;5.00;;;10.40;99.90;;;;;;5017302;28;20046;-93
2023/12/11 06:17:37;;;;;;;23.02;5.05;;;10.40;99.90;;;;;;5019931;28;20010;-93
2023/12/11 06:20:07;;;;;;;20.35;4.68;;;10.40;99.90;;;;;;5014324;28;20069;-93
2023/12/11 06:22:33;;;;;;;23.27;5.18;;;10.40;99.90;;;;;;5000698;28;20030;-93
2023/12/11 06:24:58;;;;;;;22.17;4.57;;;10.40;99.90;;;;;;4997643;28;20082;-89
2023/12/11 06:27:27;;;;;;;18.73;4.47;;;10.40;99.90;;;;;;4964935;28;20085;-88
2023/12/11 06:29:53;;;;;;;26.30;5.13;;;10.40;99.90;;;;;;4997115;28;20030;-93
2023/12/11 06:32:19;;;;;;;25.73;4.50;;;10.40;99.90;;;;;;4981457;28;20525;-94
2023/12/11 06:34:44;;;;;;;20.88;4.85;;;10.40;99.90;;;;;;4966255;28;20026;-93
2023/12/11 06:37:10;;;;;;;18.95;4.60;;;10.40;99.90;;;;;;4981036;28;20030;-93
2023/12/11 06:39:36;;;;;;;20.65;4.15;;;10.40;99.90;;;;;;4996597;28;20026;-93
2023/12/11 06:42:04;;;;;;;19.20;4.05;;;10.40;99.90;;;;;;4997003;28;20129;-93
2023/12/11 06:44:30;;;;;;;20.75;4.35;;;10.30;99.90;;;;;;4997055;28;20467;-94
2023/12/11 06:46:56;;;;;;;19.48;4.32;;;10.30;99.90;;;;;;4981116;28;20034;-89
2023/12/11 06:49:22;;;;;;;19.33;4.68;;;10.40;99.90;;;;;;4997151;28;20066;-93
2023/12/11 06:51:49;;;;;;;20.20;4.45;;;10.40;99.90;;;;;;4997471;28;20042;-93
2023/12/11 06:54:15;;;;;;;21.98;4.75;;;10.30;99.90;;;;;;4998385;28;20022;-92
2023/12/11 06:56:41;;;;;;;20.67;4.53;;;10.30;99.90;;;;;;4980939;28;20030;-92
2023/12/11 06:59:07;;;;;;;18.33;4.03;;;10.30;99.90;;;;;;4980894;28;20038;-93
2023/12/11 07:01:34;;;;;;;18.63;4.38;;;10.30;99.90;;;;;;4981216;28;20024;-93
2023/12/11 07:04:01;;;;;;;23.10;5.10;;;10.30;99.90;;;;;;4996732;28;20066;-93
2023/12/11 07:06:26;;;;;;;20.20;4.68;;;10.20;99.90;;;;;;4997043;28;20027;-91
2023/12/11 07:08:52;;;;;;;19.95;4.45;;;10.20;99.90;;;;;;4997043;28;20034;-92
2023/12/11 07:11:18;;;;;;;17.25;4.13;;;10.20;99.90;;;;;;4996843;28;20297;-94
2023/12/11 07:13:45;;;;;;;17.75;4.30;;;10.20;99.90;;;;;;4980527;28;20026;-92
2023/12/11 07:16:12;;;;;;;22.17;5.22;;;10.20;99.90;;;;;;4997190;28;20046;-91
2023/12/11 07:18:38;;;;;;;17.25;3.70;;;10.20;99.90;;;;;;4996980;28;20042;-93
2023/12/11 07:21:11;;;;;;;17.25;3.72;;;10.20;99.90;;;;;;4997299;28;20382;-94
2023/12/11 07:23:38;;;;;;;15.40;3.65;;;10.20;99.90;;;;;;4996720;28;20034;-93
2023/12/11 07:26:07;;;;;;;19.95;4.30;;;10.20;99.90;;;;;;4996712;28;20093;-92
2023/12/11 07:28:33;;;;;;;16.20;4.00;;;10.20;99.90;;;;;;4996265;28;20445;-92
2023/12/11 07:30:59;;;;;;;21.83;4.32;;;10.20;99.90;;;;;;4996514;28;20058;-94
2023/12/11 07:33:25;;;;;;;16.55;4.35;;;10.20;99.90;;;;;;4964107;28;20121;-94
2023/12/11 07:35:50;;;;;;;15.82;3.78;;;10.20;99.90;;;;;;4996508;28;20023;-91
2023/12/11 07:38:16;;;;;;;15.75;3.78;;;10.20;99.90;;;;;;4963984;28;20041;-93
2023/12/11 07:40:42;;;;;;;23.63;3.88;;;10.20;99.90;;;;;;4982604;28;20031;-92
2023/12/11 07:43:08;;;;;;;18.83;3.92;;;10.20;99.90;;;;;;5018194;28;20102;-90
2023/12/11 07:45:34;;;;;;;15.05;4.22;;;10.20;99.90;;;;;;5019732;28;20013;-93
2023/12/11 07:48:00;;;;;;;18.73;3.83;;;10.20;99.90;;;;;;5003055;28;20046;-94
2023/12/11 07:50:26;;;;;;;16.73;4.00;;;10.20;99.90;;;;;;5013756;28;20026;-93
2023/12/11 07:52:52;;;;;;;14.70;3.13;;;10.20;99.90;;;;;;4980788;28;20041;-92
2023/12/11 07:55:18;;;;;;;14.35;3.38;;;10.10;99.90;;;;;;4996242;28;20058;-91
2023/12/11 07:57:43;;;;;;;12.35;2.90;;;10.10;99.90;;;;;;4985901;28;20023;-96
2023/12/11 08:00:10;;;;;;;15.27;3.55;;;10.10;99.90;;;;;;4997222;28;20026;-96
2023/12/11 08:02:37;;;;;;;16.50;3.33;;;10.10;99.90;;;;;;4996021;28;20033;-93
2023/12/11 08:05:03;;;;;;;10.00;3.13;;;10.10;99.90;;;;;;4997669;28;20053;-94
2023/12/11 08:07:28;;;;;;;11.00;2.55;;;10.10;99.90;;;;;;4996472;28;20062;-95
2023/12/11 08:09:54;;;;;;;15.65;2.55;;;10.10;99.90;;;;;;4979516;28;20035;-92
2023/12/11 08:12:20;;;;;;;15.93;2.97;;;10.10;99.90;;;;;;4996398;28;20045;-95
2023/12/11 08:14:46;;;;;;;10.75;2.40;;;10.10;99.90;;;;;;4995332;28;20050;-92
2023/12/11 08:17:11;;;;;;;15.82;2.85;;;10.10;99.90;;;;;;4997697;28;20042;-94
2023/12/11 08:19:38;;;;;;;11.65;2.67;;;10.10;99.90;;;;;;4999217;28;20029;-95
2023/12/11 08:22:04;;;;;;;12.10;2.95;;;10.10;99.90;;;;;;4997725;28;20038;-94
2023/12/11 08:24:30;;;;;;;11.48;2.53;;;10.10;99.90;;;;;;4995123;28;20030;-95
2023/12/11 08:26:55;;;;;;;14.75;3.17;;;10.10;99.90;;;;;;4995508;28;20505;-95
2023/12/11 08:29:21;;;;;;;13.93;3.25;;;10.10;99.90;;;;;;4996148;28;20033;-91
2023/12/11 08:31:47;;;;;;;12.60;2.70;;;10.10;99.90;;;;;;4994994;28;20113;-92
2023/12/11 08:34:13;;;;;;;12.93;3.20;;;10.10;99.90;;;;;;4994750;28;20022;-93
2023/12/11 08:36:39;;;;;;;10.35;2.25;;;10.10;99.90;;;;;;4995246;28;20030;-93
2023/12/11 08:39:04;;;;;;;9.88;2.90;;;10.10;99.90;;;;;;4979380;28;20049;-92
2023/12/11 08:41:30;;;;;;;9.05;3.00;;;10.00;99.90;;;;;;4978862;28;20026;-91
2023/12/11 08:43:56;;;;;;;11.35;2.67;;;10.00;99.90;;;;;;4978896;28;20080;-91
2023/12/11 08:46:22;;;;;;;9.32;2.72;;;10.00;99.90;;;;;;4978573;28;20041;-90
2023/12/11 08:48:48;;;;;;;9.52;2.28;;;10.00;99.90;;;;;;4963149;28;20244;-93
2023/12/11 08:51:18;;;;;;;9.55;2.65;;;10.00;99.90;;;;;;4978779;28;20058;-91
2023/12/11 08:53:46;;;;;;;10.50;2.47;;;10.00;99.90;;;;;;4995021;28;20062;-92
2023/12/11 08:56:13;;;;;;;14.68;3.08;;;10.00;99.90;;;;;;4995098;28;20031;-90
2023/12/11 08:58:39;;;;;;;14.40;3.30;;;10.00;99.90;;;;;;4995861;28;20058;-94
2023/12/11 09:01:05;;;;;;;15.18;3.50;;;10.00;99.90;;;;;;4994915;28;20383;-90
2023/12/11 09:03:31;;;;;;;12.38;3.13;;;10.00;99.90;;;;;;4994706;28;20026;-93
2023/12/11 09:05:57;;;;;;;9.70;3.97;;;10.00;99.90;;;;;;4996379;28;20089;-91
2023/12/11 09:08:22;;;;;;;9.93;2.85;;;10.10;99.90;;;;;;4995000;28;20026;-93
2023/12/11 09:10:48;;;;;;;11.27;2.83;;;10.10;99.90;;;;;;4997662;28;20038;-95
2023/12/11 09:13:14;;;;;;;10.85;2.97;;;10.10;99.90;;;;;;5017038;28;20018;-87
2023/12/11 09:15:39;;;;;;;8.68;2.20;;;10.10;99.90;;;;;;5018481;28;20050;-93
2023/12/11 09:18:07;;;;;;;8.30;2.42;;;10.10;99.90;;;;;;4999579;28;20097;-95
2023/12/11 09:20:33;;;;;;;8.43;2.40;;;10.10;99.90;;;;;;5002325;28;20023;-95
2023/12/11 09:22:58;;;;;;;11.85;2.58;;;10.10;99.90;;;;;;4998013;28;20089;-95
2023/12/11 09:25:24;;;;;;;9.85;2.42;;;10.20;99.90;;;;;;4979698;28;20037;-92
2023/12/11 09:27:50;;;;;;;10.93;2.25;;;10.10;99.90;;;;;;4996301;28;20025;-91
2023/12/11 09:30:15;;;;;;;8.38;2.28;;;10.20;99.90;;;;;;4995344;28;20023;-88
2023/12/11 09:32:41;;;;;;;7.75;1.70;;;10.20;99.90;;;;;;4979158;28;20038;-93
2023/12/11 09:35:07;;;;;;;9.57;2.25;;;10.20;99.90;;;;;;4997440;28;20454;-95
2023/12/11 09:37:33;;;;;;;6.55;1.90;;;10.20;99.90;;;;;;4996802;28;20026;-93
2023/12/11 09:39:59;;;;;;;8.98;2.30;;;10.30;99.90;;;;;;4996381;28;20041;-92
2023/12/11 09:42:26;;;;;;;8.82;2.35;;;10.20;99.90;;;;;;4995970;28;20150;-93
2023/12/11 09:44:55;;;;;;;9.10;2.25;;;10.30;99.90;;;;;;4995877;28;20030;-94
2023/12/11 09:47:28;;;;;;;9.45;2.20;;;10.30;99.90;;;;;;4995314;28;20030;-93
2023/12/11 09:49:54;;;;;;;6.50;2.00;;;10.30;99.90;;;;;;4996154;28;20030;-94
2023/12/11 09:52:22;;;;;;;6.30;1.90;;;10.30;99.90;;;;;;4996547;28;20363;-96
2023/12/11 09:54:47;;;;;;;11.35;2.65;;;10.30;99.90;;;;;;5000375;28;20025;-95
2023/12/11 09:57:15;;;;;;;10.63;2.85;;;10.30;99.90;;;;;;4984143;28;20073;-93
2023/12/11 09:59:42;;;;;;;11.73;2.20;;;10.30;99.90;;;;;;5001764;28;20082;-94
2023/12/11 10:02:15;;;;;;;9.85;2.50;;;10.30;99.90;;;;;;5000999;28;20030;-94
2023/12/11 10:05:09;;;;;;;6.40;2.28;;;10.30;99.90;;;;;;5000559;28;20119;-92
2023/12/11 10:07:42;;;;;;;7.55;2.15;;;10.30;99.90;;;;;;5000088;28;20126;-93
2023/12/11 10:10:30;;;;;;;9.43;2.30;;;10.30;99.90;;;;;;5000594;28;20029;-93
2023/12/11 10:12:56;;;;;;;10.25;2.58;;;10.30;99.90;;;;;;5000441;28;20026;-94
2023/12/11 10:15:24;;;;;;;11.02;2.63;;;10.30;99.90;;;;;;4982262;28;20065;-92
2023/12/11 10:18:06;;;;;;;9.20;2.92;;;10.30;99.90;;;;;;4998664;28;20025;-95
2023/12/11 10:20:36;;;;;;;11.48;2.58;;;10.30;99.90;;;;;;4997971;28;20112;-92
2023/12/11 10:23:14;;;;;;;11.98;2.78;;;10.30;99.90;;;;;;4997796;28;20478;-92
2023/12/11 10:25:50;;;;;;;10.57;2.65;;;10.30;99.90;;;;;;4998015;28;20035;-91
2023/12/11 10:28:19;;;;;;;7.57;2.33;;;10.20;99.90;;;;;;4982192;28;20054;-91
2023/12/11 10:30:55;;;;;;;7.82;2.60;;;10.20;99.90;;;;;;4998292;28;20022;-92
2023/12/11 10:33:23;;;;;;;9.60;2.67;;;10.20;99.90;;;;;;4998292;28;20030;-92
2023/12/11 10:35:49;;;;;;;6.35;2.22;;;10.30;99.90;;;;;;4999805;28;20031;-94
2023/12/11 10:38:22;;;;;;;7.70;3.20;;;10.20;99.90;;;;;;4997980;28;20030;-93
2023/12/11 10:40:51;;;;;;;13.80;2.97;;;10.30;99.90;;;;;;5002366;28;20046;-93
2023/12/11 10:43:20;;;;;;;8.95;2.80;;;10.30;99.90;;;;;;5016970;28;20049;-93
2023/12/11 10:45:46;;;;;;;8.60;2.20;;;10.30;99.90;;;;;;5004661;28;20045;-93
2023/12/11 10:48:14;;;;;;;10.05;2.97;;;10.30;99.90;;;;;;5020791;28;20046;-89
2023/12/11 10:50:41;;;;;;;10.73;3.28;;;10.30;99.90;;;;;;4986141;28;20034;-92
2023/12/11 10:53:08;;;;;;;14.63;2.78;;;10.30;99.90;;;;;;4983031;28;20030;-93
2023/12/11 10:55:36;;;;;;;8.85;3.05;;;10.30;99.90;;;;;;4997734;28;20034;-95
2023/12/11 10:58:03;;;;;;;10.55;2.63;;;10.30;99.90;;;;;;4998553;28;20080;-96
2023/12/11 11:00:31;;;;;;;10.10;2.72;;;10.30;99.90;;;;;;4981478;28;20030;-94
2023/12/11 11:02:57;;;;;;;6.88;2.17;;;10.30;99.90;;;;;;4981501;28;20125;-92
2023/12/11 11:05:25;;;;;;;12.05;2.75;;;10.30;99.90;;;;;;4996245;28;20058;-94
2023/12/11 11:08:03;;;;;;;13.25;2.80;;;10.30;99.90;;;;;;4997635;28;20050;-91
2023/12/11 11:10:36;;;;;;;10.10;2.30;;;10.30;99.90;;;;;;4996851;28;20390;-91
2023/12/11 11:13:19;;;;;;;10.05;2.83;;;10.30;99.90;;;;;;4997940;28;20137;-91
2023/12/11 11:15:52;;;;;;;10.60;3.00;;;10.30;99.90;;;;;;4996615;28;20050;-91
2023/12/11 11:18:17;;;;;;;9.13;2.70;;;10.30;99.90;;;;;;4997295;28;20375;-91
2023/12/11 11:21:10;;;;;;;9.18;3.17;;;10.40;99.90;;;;;;4996601;28;20027;-94
2023/12/11 11:23:47;;;;;;;8.63;2.33;;;10.40;99.90;;;;;;4997022;28;20056;-89
2023/12/11 11:26:36;;;;;;;8.77;2.85;;;10.40;99.90;;;;;;4981567;28;20096;-94
2023/12/11 11:29:03;;;;;;;9.18;2.50;;;10.30;99.90;;;;;;4980938;28;20031;-93
2023/12/11 11:31:51;;;;;;;5.72;1.77;;;10.20;99.90;;;;;;4979997;28;20030;-90
2023/12/11 11:34:38;;;;;;;8.30;2.25;;;10.20;99.90;;;;;;4980519;28;20034;-93
2023/12/11 11:37:04;;;;;;;7.20;1.85;;;10.20;99.90;;;;;;4997424;28;20030;-93
2023/12/11 11:39:59;;;;;;;8.00;1.80;;;10.10;99.90;;;;;;4996361;28;20037;-89
2023/12/11 11:42:30;;;;;;;11.38;2.38;;;10.10;99.90;;;;;;4996402;28;20466;-93
2023/12/11 11:44:59;;;;;;;;;;;10.20;99.90;;;;;;4996945;28;20022;-94
2023/12/11 11:47:26;;;;;;;7.82;1.80;;;10.20;99.90;;;;;;4979890;28;19964;-93
2023/12/11 11:50:02;;;;;;;9.60;2.22;;;10.20;99.90;;;;;;4979933;28;20023;-93
2023/12/11 11:52:28;;;;;;;10.85;2.40;;;10.30;99.90;;;;;;4997093;28;20042;-93
2023/12/11 11:55:26;;;;;;;8.52;2.38;;;10.30;99.90;;;;;;4979806;28;20030;-93
2023/12/11 11:57:53;;;;;;;8.02;1.80;;;10.30;99.90;;;;;;4995691;28;20045;-94
2023/12/11 12:00:31;;;;;;;7.97;2.08;;;10.40;99.90;;;;;;4995849;28;20133;-93
2023/12/11 12:03:04;;;;;;;7.88;2.45;;;10.40;99.90;;;;;;4995760;28;20041;-93
2023/12/11 12:05:30;;;;;;;4.82;1.60;;;10.50;99.90;;;;;;4996064;28;20030;-94
2023/12/11 12:07:56;;;;;;;11.38;2.42;;;10.50;99.90;;;;;;4995248;28;20080;-93
2023/12/11 12:10:22;;;;;;;6.70;1.83;;;10.50;99.90;;;;;;4996022;28;20026;-92
2023/12/11 12:12:55;;;;;;;8.77;2.13;;;10.50;99.90;;;;;;4997543;28;20039;-91
2023/12/11 12:15:21;;;;;;;10.20;2.70;;;10.60;99.90;;;;;;5017428;28;20054;-92
2023/12/11 12:17:46;;;;;;;6.45;2.28;;;10.50;99.90;;;;;;5019115;28;20014;-90
2023/12/11 12:20:14;;;;;;;6.35;2.00;;;10.60;99.90;;;;;;5019121;28;20030;-93
2023/12/11 12:22:58;;;;;;;7.85;2.20;;;10.50;99.90;;;;;;5017056;28;20098;-94
2023/12/11 12:25:24;;;;;;;6.28;2.67;;;10.50;99.90;;;;;;4996459;28;20031;-94
2023/12/11 12:27:51;;;;;;;7.18;1.92;;;10.60;99.90;;;;;;4979808;28;20034;-88
2023/12/11 12:30:19;;;;;;;10.75;2.25;;;10.60;99.90;;;;;;4995810;28;20030;-92
2023/12/11 12:32:49;;;;;;;7.15;2.65;;;10.50;99.90;;;;;;4979348;28;20035;-93
2023/12/11 12:35:17;;;;;;;7.32;2.05;;;10.50;99.90;;;;;;4995370;28;20093;-94
2023/12/11 12:37:44;;;;;;;8.38;2.83;;;10.50;99.90;;;;;;4995388;28;20022;-92
2023/12/11 12:40:12;;;;;;;8.10;2.05;;;10.50;99.90;;;;;;4979217;28;20022;-92
2023/12/11 12:42:38;;;;;;;9.35;2.28;;;10.50;99.90;;;;;;4978935;28;20038;-93